Time;durP1;ratioP1;P1;durP2;ratioP2;P2;SDS_P1;SDS_P2;PMS_P1;PMS_P2;Temp;Humidity;BMP_temperature;BMP_pressure;BME280_temperature;BME280_humidity;BME280_pressure;Samples;Min_cycle;Max_cycle;Signal;HPM_P1;HPM_P2
2023/03/16 00:00:42;;;;;;;16.00;7.00;;;;;;;10.09;41.19;100235.88;145131;1260;98923;-76
2023/03/16 00:04:06;;;;;;;10.60;6.10;;;;;;;10.06;41.56;100239.65;145074;1257;107547;-76
2023/03/16 00:07:28;;;;;;;17.10;7.10;;;;;;;10.03;41.56;100243.21;144820;1260;97915;-76
2023/03/16 00:11:34;;;;;;;11.60;7.00;;;;;;;9.99;41.34;100242.27;145054;1256;97919;-75
2023/03/16 00:15:21;;;;;;;11.90;7.80;;;;;;;9.97;41.50;100250.20;144744;1261;98018;-75
2023/03/16 00:18:43;;;;;;;11.20;7.40;;;;;;;9.93;41.59;100254.45;144704;1270;97995;-75
2023/03/16 00:22:08;;;;;;;10.20;6.80;;;;;;;9.90;41.68;100253.34;145271;1260;97935;-74
2023/03/16 00:25:32;;;;;;;11.40;7.80;;;;;;;9.89;41.56;100258.67;144681;1260;98320;-75
2023/03/16 00:28:58;;;;;;;11.90;7.00;;;;;;;9.85;41.71;100258.23;144705;1261;101406;-77
2023/03/16 00:32:28;;;;;;;13.30;6.20;;;;;;;9.83;41.49;100263.56;144527;1260;98531;-76
2023/03/16 00:36:00;;;;;;;13.90;7.20;;;;;;;9.80;41.52;100269.93;144986;1256;97992;-74
2023/03/16 00:39:23;;;;;;;11.40;6.50;;;;;;;9.78;41.53;100272.13;144992;1257;99209;-75
2023/03/16 00:42:44;;;;;;;13.60;7.10;;;;;;;9.76;41.67;100273.30;145157;1260;98105;-74
2023/03/16 00:46:39;;;;;;;16.80;7.60;;;;;;;9.74;41.75;100277.39;145630;1256;97813;-75
2023/03/16 00:50:01;;;;;;;11.70;7.00;;;;;;;9.71;41.71;100278.04;144698;1256;99095;-78
2023/03/16 00:53:22;;;;;;;14.10;6.30;;;;;;;9.70;41.67;100276.95;145311;1256;99298;-76
2023/03/16 00:56:48;;;;;;;12.10;7.30;;;;;;;9.67;41.64;100277.06;144737;1261;99371;-77
2023/03/16 01:00:15;;;;;;;11.40;6.10;;;;;;;9.65;41.77;100278.03;145364;1260;111066;-76
2023/03/16 01:03:40;;;;;;;11.70;7.30;;;;;;;9.62;41.67;100281.11;145063;1261;111067;-74
2023/03/16 01:07:06;;;;;;;11.60;7.00;;;;;;;9.60;41.60;100278.95;144595;1272;112084;-74
2023/03/16 01:10:28;;;;;;;10.40;6.90;;;;;;;9.57;41.70;100280.10;144940;1261;111016;-76
2023/03/16 01:13:53;;;;;;;14.20;7.80;;;;;;;9.55;41.82;100284.88;144947;1257;98423;-75
2023/03/16 01:21:20;;;;;;;11.10;7.10;;;;;;;9.49;41.85;100289.23;144424;1258;111934;-76
2023/03/16 01:24:51;;;;;;;12.90;6.30;;;;;;;9.44;41.77;100285.85;144868;1256;112162;-75
2023/03/16 01:28:12;;;;;;;10.30;6.20;;;;;;;9.42;41.85;100286.64;145240;1258;111186;-76
2023/03/16 01:32:07;;;;;;;10.30;6.30;;;;;;;9.40;41.71;100291.27;144720;1258;97985;-76
2023/03/16 01:35:29;;;;;;;13.60;7.40;;;;;;;9.37;41.83;100292.75;145446;1256;111229;-75
2023/03/16 01:38:51;;;;;;;20.30;7.50;;;;;;;9.35;41.82;100294.95;144781;1260;97938;-75
2023/03/16 01:42:31;;;;;;;14.50;6.90;;;;;;;9.33;41.71;100301.31;144874;1261;97996;-74
2023/03/16 01:46:05;;;;;;;10.90;6.70;;;;;;;9.31;41.84;100299.34;144786;1256;102187;-76
2023/03/16 01:49:33;;;;;;;10.10;6.40;;;;;;;9.29;42.00;100301.89;144936;1260;103107;-76
2023/03/16 01:52:55;;;;;;;13.40;6.70;;;;;;;9.26;41.83;100305.45;145043;1260;102108;-75
2023/03/16 01:56:25;;;;;;;11.90;6.80;;;;;;;9.23;41.87;100307.45;144619;1260;98119;-76
2023/03/16 01:59:51;;;;;;;11.60;6.80;;;;;;;9.21;41.92;100304.96;144588;1260;102187;-76
2023/03/16 02:03:45;;;;;;;8.00;6.50;;;;;;;9.17;41.93;100301.23;144895;1257;103563;-77
2023/03/16 02:07:16;;;;;;;9.30;5.70;;;;;;;9.15;41.99;100302.03;145138;1257;103211;-76
2023/03/16 02:10:39;;;;;;;10.90;7.00;;;;;;;9.12;42.05;100299.19;144789;1272;103245;-75
2023/03/16 02:14:19;;;;;;;10.80;7.00;;;;;;;9.11;42.04;100296.88;145047;1260;97953;-75
2023/03/16 02:18:16;;;;;;;14.80;7.30;;;;;;;9.09;42.02;100300.11;144684;1256;103027;-74
2023/03/16 02:22:02;;;;;;;11.80;6.00;;;;;;;9.06;42.15;100303.34;144731;1263;103172;-77
2023/03/16 02:26:12;;;;;;;10.10;6.20;;;;;;;9.04;42.04;100307.25;145667;1256;103069;-75
2023/03/16 02:30:03;;;;;;;11.90;6.20;;;;;;;9.01;42.15;100305.63;144721;1260;102915;-77
2023/03/16 02:33:34;;;;;;;9.60;6.20;;;;;;;8.99;42.08;100307.30;144863;1256;103240;-77
2023/03/16 02:37:10;;;;;;;9.30;5.60;;;;;;;8.96;42.11;100309.66;145689;1256;103090;-77
2023/03/16 02:41:03;;;;;;;11.20;6.10;;;;;;;8.95;42.16;100313.27;144980;1256;102226;-75
2023/03/16 02:44:32;;;;;;;10.10;6.50;;;;;;;8.94;42.24;100320.70;144777;1261;103020;-76
2023/03/16 02:47:57;;;;;;;9.70;6.30;;;;;;;8.93;42.15;100324.63;144903;1260;103060;-77
2023/03/16 02:51:19;;;;;;;13.10;6.00;;;;;;;8.91;42.31;100327.36;145778;1256;103015;-76
2023/03/16 02:54:41;;;;;;;10.20;6.20;;;;;;;8.90;42.28;100330.62;145208;1259;98088;-75
2023/03/16 02:58:03;;;;;;;8.90;6.40;;;;;;;8.89;42.19;100335.10;144731;1269;98030;-74
2023/03/16 03:01:25;;;;;;;13.10;6.70;;;;;;;8.88;42.33;100337.31;145157;1260;108423;-77
2023/03/16 03:04:49;;;;;;;11.20;6.30;;;;;;;8.86;42.26;100339.84;145035;1256;97913;-76
2023/03/16 03:08:11;;;;;;;8.90;5.70;;;;;;;8.84;42.28;100344.46;145107;1257;97999;-75
2023/03/16 03:11:47;;;;;;;9.40;5.90;;;;;;;8.82;42.28;100352.52;144632;1270;107394;-75
2023/03/16 03:15:09;;;;;;;7.30;6.20;;;;;;;8.79;42.41;100349.67;144809;1264;97927;-73
2023/03/16 03:18:41;;;;;;;11.50;7.40;;;;;;;8.77;42.35;100350.33;145055;1260;108599;-77
2023/03/16 03:22:10;;;;;;;9.60;6.10;;;;;;;8.74;42.33;100353.02;145056;1256;106247;-73
2023/03/16 03:26:04;;;;;;;9.50;6.50;;;;;;;8.72;42.35;100355.20;144740;1257;98534;-75
2023/03/16 03:29:34;;;;;;;9.40;5.50;;;;;;;8.70;42.40;100362.74;145158;1256;107610;-74
2023/03/16 03:33:00;;;;;;;7.30;5.50;;;;;;;8.67;42.49;100369.45;144740;1271;107450;-74
2023/03/16 03:37:15;;;;;;;11.10;5.90;;;;;;;8.64;42.51;100377.30;145652;1256;108393;-74
2023/03/16 03:40:38;;;;;;;10.90;6.30;;;;;;;8.61;42.48;100375.15;145318;1256;108391;-75
2023/03/16 03:43:59;;;;;;;9.00;6.30;;;;;;;8.60;42.51;100380.31;144711;1261;99118;-75
2023/03/16 03:47:29;;;;;;;8.70;6.50;;;;;;;8.59;42.56;100381.47;145659;1256;99635;-74
2023/03/16 03:50:54;;;;;;;11.20;6.90;;;;;;;8.56;42.49;100382.60;145036;1256;99213;-74
2023/03/16 03:54:24;;;;;;;13.80;6.70;;;;;;;8.55;42.62;100384.48;145171;1256;97906;-74
2023/03/16 03:57:55;;;;;;;16.30;7.50;;;;;;;8.54;42.60;100393.09;145014;1260;98006;-74
2023/03/16 04:01:17;;;;;;;12.80;8.20;;;;;;;8.51;42.52;100398.58;144860;1261;98026;-74
2023/03/16 04:04:40;;;;;;;11.40;6.90;;;;;;;8.50;42.62;100397.81;144876;1257;99190;-75
2023/03/16 04:08:04;;;;;;;11.80;6.70;;;;;;;8.48;42.73;100400.02;145058;1256;98010;-74
2023/03/16 04:11:27;;;;;;;10.70;6.30;;;;;;;8.47;42.61;100402.41;145038;1257;98065;-75
2023/03/16 04:14:51;;;;;;;12.20;7.20;;;;;;;8.45;42.75;100403.21;145020;1260;97899;-75
2023/03/16 04:18:16;;;;;;;13.50;6.40;;;;;;;8.44;42.72;100407.34;144822;1260;97935;-76
2023/03/16 04:21:40;;;;;;;11.50;7.00;;;;;;;8.42;42.71;100406.91;144949;1260;99213;-76
2023/03/16 04:26:13;;;;;;;8.70;6.40;;;;;;;8.40;42.86;100409.27;144623;1260;98008;-75
2023/03/16 04:29:37;;;;;;;11.30;6.30;;;;;;;8.38;42.83;100412.14;145369;1256;97928;-74
2023/03/16 04:33:00;;;;;;;10.20;6.60;;;;;;;8.36;42.89;100410.83;144904;1257;98490;-74
2023/03/16 04:36:25;;;;;;;8.00;5.80;;;;;;;8.34;42.74;100410.60;144514;1257;98012;-75
2023/03/16 04:39:47;;;;;;;11.10;7.20;;;;;;;8.33;42.89;100410.20;144739;1257;99232;-77
2023/03/16 04:43:15;;;;;;;13.20;7.60;;;;;;;8.31;42.89;100412.41;144967;1260;99236;-75
2023/03/16 04:47:38;;;;;;;14.60;7.20;;;;;;;8.30;42.95;100418.09;144588;1256;99102;-75
2023/03/16 04:51:02;;;;;;;9.90;6.80;;;;;;;8.29;42.97;100427.05;144846;1260;98317;-75
2023/03/16 04:54:26;;;;;;;14.10;6.70;;;;;;;8.27;42.90;100426.84;144648;1260;97998;-75
2023/03/16 04:57:49;;;;;;;13.40;6.70;;;;;;;8.27;43.04;100433.91;145373;1256;97917;-75
2023/03/16 05:01:12;;;;;;;11.80;7.70;;;;;;;8.25;43.07;100434.73;145048;1257;98722;-77
2023/03/16 05:04:34;;;;;;;17.50;6.90;;;;;;;8.25;43.02;100438.19;144908;1257;171103;-74
2023/03/16 05:07:58;;;;;;;12.70;7.90;;;;;;;8.25;43.05;100445.64;144743;1257;97979;-75
2023/03/16 05:11:21;;;;;;;10.90;7.10;;;;;;;8.26;42.99;100446.36;144672;1257;99215;-74
2023/03/16 05:14:49;;;;;;;11.40;7.60;;;;;;;8.26;43.03;100441.52;144600;1263;97960;-74
2023/03/16 05:18:37;;;;;;;10.90;6.30;;;;;;;8.28;43.05;100445.56;144652;1257;97997;-76
2023/03/16 05:21:58;;;;;;;10.10;6.70;;;;;;;8.29;42.98;100447.48;144588;1257;97998;-76
2023/03/16 05:25:21;;;;;;;10.90;7.10;;;;;;;8.30;42.94;100448.75;144910;1260;97983;-74
2023/03/16 05:28:48;;;;;;;15.40;7.60;;;;;;;8.33;43.04;100454.89;144886;1256;112076;-76
2023/03/16 05:32:15;;;;;;;12.20;6.90;;;;;;;8.36;42.97;100450.51;144758;1260;112039;-75
2023/03/16 05:35:38;;;;;;;11.90;7.10;;;;;;;8.39;43.04;100459.10;144783;1256;112538;-75
2023/03/16 05:39:03;;;;;;;12.40;7.30;;;;;;;8.42;42.91;100460.79;144858;1257;112017;-75
2023/03/16 05:42:47;;;;;;;14.90;6.80;;;;;;;8.46;42.84;100460.93;144741;1260;112687;-76
2023/03/16 05:46:10;;;;;;;12.20;8.20;;;;;;;8.50;42.90;100461.59;144756;1262;112050;-74
2023/03/16 05:49:32;;;;;;;10.00;6.60;;;;;;;8.55;42.81;100466.57;144972;1256;97978;-76
2023/03/16 05:52:56;;;;;;;13.10;6.80;;;;;;;8.58;42.91;100463.38;144988;1260;97924;-75
2023/03/16 05:56:17;;;;;;;16.80;7.80;;;;;;;8.61;42.81;100467.30;145295;1256;97912;-75
2023/03/16 05:59:39;;;;;;;13.90;7.30;;;;;;;8.65;42.72;100470.73;145317;1260;105150;-77
2023/03/16 06:03:03;;;;;;;13.90;8.10;;;;;;;8.69;42.73;100473.99;145042;1256;98730;-76
2023/03/16 06:06:27;;;;;;;14.90;8.00;;;;;;;8.73;42.57;100473.60;144786;1256;103049;-76
2023/03/16 06:09:56;;;;;;;16.50;8.40;;;;;;;8.79;42.71;100477.75;144625;1256;102115;-76
2023/03/16 06:13:19;;;;;;;11.90;7.50;;;;;;;8.84;42.61;100482.25;144733;1260;97902;-75
2023/03/16 06:16:58;;;;;;;13.30;7.60;;;;;;;8.90;42.60;100481.56;144701;1255;103264;-76
2023/03/16 06:20:22;;;;;;;12.40;6.80;;;;;;;8.94;42.53;100482.59;144949;1256;103278;-75
2023/03/16 06:23:49;;;;;;;10.80;7.10;;;;;;;9.00;42.54;100483.80;145110;1263;104942;-79
2023/03/16 06:27:12;;;;;;;13.00;7.70;;;;;;;9.06;42.38;100487.27;145009;1259;103114;-76
2023/03/16 06:30:48;;;;;;;10.80;7.40;;;;;;;9.13;42.42;100485.09;144927;1257;104540;-75
2023/03/16 06:34:10;;;;;;;12.70;7.50;;;;;;;9.20;42.42;100487.19;145229;1256;98560;-76
2023/03/16 06:37:35;;;;;;;12.00;7.30;;;;;;;9.26;42.37;100487.90;145134;1257;98437;-76
2023/03/16 06:41:04;;;;;;;10.20;7.00;;;;;;;9.34;42.10;100492.14;144775;1256;103037;-75
2023/03/16 06:44:30;;;;;;;16.70;7.90;;;;;;;9.40;42.06;100488.69;144974;1257;103876;-77
2023/03/16 06:53:13;;;;;;;12.00;7.80;;;;;;;9.59;42.03;100501.04;145467;1262;102198;-75
2023/03/16 06:56:35;;;;;;;16.70;7.20;;;;;;;9.66;41.98;100503.52;144632;1260;103016;-79
2023/03/16 06:59:58;;;;;;;11.60;8.00;;;;;;;9.75;41.89;100507.21;145226;1257;98005;-74
2023/03/16 07:03:20;;;;;;;14.00;7.50;;;;;;;9.83;41.90;100507.95;144903;1257;98362;-75
2023/03/16 07:06:46;;;;;;;10.70;7.10;;;;;;;9.90;41.73;100514.97;145292;1256;108285;-76
2023/03/16 07:10:12;;;;;;;12.00;7.70;;;;;;;10.00;41.55;100519.38;144769;1261;98624;-75
2023/03/16 07:13:35;;;;;;;13.80;7.80;;;;;;;10.08;41.78;100526.39;145123;1257;108601;-74
2023/03/16 07:16:57;;;;;;;13.50;7.90;;;;;;;10.18;41.47;100529.78;145317;1260;107573;-74
2023/03/16 07:20:20;;;;;;;13.90;7.50;;;;;;;10.27;41.63;100531.11;145310;1260;99501;-74
2023/03/16 07:23:44;;;;;;;10.80;8.00;;;;;;;10.38;41.24;100530.02;144995;1260;108392;-74
2023/03/16 07:27:07;;;;;;;14.20;8.10;;;;;;;10.48;41.28;100529.75;145239;1256;97962;-74
2023/03/16 07:30:30;;;;;;;10.80;7.00;;;;;;;10.57;41.19;100527.22;144742;1260;99229;-73
2023/03/16 07:33:54;;;;;;;11.50;7.90;;;;;;;10.85;40.95;100529.30;145075;1256;97992;-76
2023/03/16 07:37:22;;;;;;;13.90;8.50;;;;;;;13.41;40.07;100529.00;144879;1256;97962;-75
2023/03/16 07:40:51;;;;;;;13.30;8.80;;;;;;;16.70;37.83;100531.65;145091;1259;99235;-74
2023/03/16 07:44:15;;;;;;;11.70;8.00;;;;;;;19.33;35.14;100543.14;144553;1260;97902;-75
2023/03/16 07:47:40;;;;;;;12.30;8.90;;;;;;;21.47;32.72;100547.29;144918;1257;97976;-76
2023/03/16 07:51:27;;;;;;;13.30;10.20;;;;;;;23.21;30.26;100546.88;144970;1258;97938;-76
2023/03/16 07:54:50;;;;;;;16.30;10.80;;;;;;;24.77;28.34;100553.42;144441;1256;97982;-77
2023/03/16 07:58:12;;;;;;;20.30;10.30;;;;;;;25.92;26.99;100560.00;144922;1260;98006;-81
2023/03/16 08:01:35;;;;;;;17.80;11.10;;;;;;;26.88;25.64;100570.56;144727;1257;98833;-76
2023/03/16 08:04:57;;;;;;;15.00;10.90;;;;;;;27.79;24.68;100569.90;145380;1257;99296;-78
2023/03/16 08:08:21;;;;;;;18.60;11.60;;;;;;;28.70;23.59;100567.12;144679;1258;99076;-77
2023/03/16 08:11:43;;;;;;;16.60;10.40;;;;;;;29.57;23.00;100567.23;145114;1256;97848;-77
2023/03/16 08:15:09;;;;;;;14.40;10.10;;;;;;;30.48;22.11;100572.04;145191;1256;99242;-76
2023/03/16 08:18:31;;;;;;;16.80;10.50;;;;;;;31.18;20.97;100582.55;145256;1260;98008;-78
2023/03/16 08:21:52;;;;;;;11.90;9.90;;;;;;;31.71;20.55;100586.08;145246;1260;97902;-77
2023/03/16 08:25:27;;;;;;;10.60;8.90;;;;;;;32.31;19.92;100587.90;144961;1263;98904;-77
2023/03/16 08:29:01;;;;;;;15.80;9.60;;;;;;;32.84;19.34;100588.30;145159;1262;97992;-77
2023/03/16 08:32:27;;;;;;;16.40;8.30;;;;;;;33.27;18.89;100590.10;144576;1261;99124;-78
2023/03/16 08:35:49;;;;;;;11.60;9.30;;;;;;;33.57;18.45;100588.80;144596;1261;99060;-78
2023/03/16 08:39:12;;;;;;;10.20;8.90;;;;;;;33.91;18.12;100592.87;144790;1257;97919;-79
2023/03/16 08:42:40;;;;;;;12.30;8.60;;;;;;;34.58;18.27;100603.06;144747;1261;97963;-78
2023/03/16 08:46:04;;;;;;;8.30;7.40;;;;;;;35.61;18.18;100613.52;144839;1259;98373;-76
2023/03/16 08:49:36;;;;;;;11.50;8.10;;;;;;;36.73;18.07;100618.95;144857;1260;97918;-76
2023/03/16 08:53:29;;;;;;;6.90;6.10;;;;;;;37.71;18.05;100622.65;144689;1256;97854;-77
2023/03/16 08:56:53;;;;;;;7.70;5.80;;;;;;;38.55;17.51;100629.56;143878;1263;98092;-77
2023/03/16 09:00:16;;;;;;;6.50;5.90;;;;;;;39.17;17.38;100633.65;144278;1267;99267;-79
2023/03/16 09:03:44;;;;;;;10.90;6.00;;;;;;;39.75;17.26;100641.27;144552;1263;99388;-77
2023/03/16 09:07:07;;;;;;;6.70;5.40;;;;;;;40.34;17.00;100643.59;144312;1263;99017;-82
2023/03/16 09:10:32;;;;;;;6.30;5.30;;;;;;;40.80;16.70;100644.73;144338;1265;98133;-78
2023/03/16 09:13:53;;;;;;;12.30;7.40;;;;;;;41.00;15.82;100645.13;144629;1267;98069;-79
2023/03/16 09:17:15;;;;;;;8.60;7.40;;;;;;;40.42;14.40;100642.05;145368;1262;98863;-80
2023/03/16 09:20:37;;;;;;;8.20;6.80;;;;;;;39.57;13.82;100635.86;144505;1267;102432;-81
2023/03/16 09:24:00;;;;;;;13.20;6.90;;;;;;;38.85;13.80;100630.73;144712;1263;98614;-82
2023/03/16 09:27:35;;;;;;;6.20;5.60;;;;;;;38.49;14.25;100631.63;144669;1267;98815;-83
2023/03/16 09:31:00;;;;;;;6.20;5.50;;;;;;;37.07;13.51;100623.66;144734;1262;97994;-83
2023/03/16 09:34:22;;;;;;;6.90;5.60;;;;;;;35.02;13.93;100617.45;145614;1259;98422;-82
2023/03/16 09:37:49;;;;;;;7.60;5.50;;;;;;;34.59;14.76;100614.53;145311;1256;97940;-80
2023/03/16 09:41:33;;;;;;;9.00;6.00;;;;;;;33.38;15.46;100613.02;145280;1257;97980;-79
2023/03/16 09:45:15;;;;;;;8.40;5.40;;;;;;;31.87;15.76;100610.39;144998;1257;99085;-80
2023/03/16 09:48:38;;;;;;;7.10;5.40;;;;;;;31.20;16.76;100606.13;144888;1257;98705;-79
2023/03/16 09:52:12;;;;;;;9.60;5.60;;;;;;;30.88;18.49;100602.62;144879;1263;98027;-77
2023/03/16 09:55:39;;;;;;;9.50;5.30;;;;;;;30.53;20.03;100600.78;144895;1260;98002;-79
2023/03/16 09:59:07;;;;;;;7.90;5.50;;;;;;;31.34;20.64;100608.69;144772;1262;97991;-78
2023/03/16 10:03:07;;;;;;;6.00;5.40;;;;;;;32.41;19.34;100610.26;145316;1256;98920;-78
2023/03/16 10:06:30;;;;;;;6.70;4.40;;;;;;;32.98;18.82;100616.51;144872;1256;99153;-78
2023/03/16 10:10:02;;;;;;;6.50;3.60;;;;;;;32.10;17.59;100616.85;144951;1262;98001;-79
2023/03/16 10:13:38;;;;;;;5.50;4.20;;;;;;;32.16;17.56;100616.14;145197;1260;98293;-79
2023/03/16 10:17:04;;;;;;;6.40;3.40;;;;;;;32.76;17.27;100612.89;144865;1257;101826;-79
2023/03/16 10:20:27;;;;;;;8.90;2.90;;;;;;;33.16;16.33;100616.75;144690;1263;97944;-78
2023/03/16 10:23:54;;;;;;;6.10;2.60;;;;;;;32.76;15.48;100617.41;144803;1260;98422;-78
2023/03/16 10:27:26;;;;;;;3.50;2.60;;;;;;;32.13;15.34;100617.64;145009;1262;102059;-78
2023/03/16 10:30:50;;;;;;;5.00;2.40;;;;;;;31.64;15.36;100618.13;144771;1263;99868;-78
2023/03/16 10:34:14;;;;;;;4.20;3.30;;;;;;;31.48;15.36;100618.52;144863;1260;99365;-79
2023/03/16 10:37:36;;;;;;;7.40;2.80;;;;;;;31.18;15.40;100620.99;144833;1260;98312;-79
2023/03/16 10:40:59;;;;;;;3.30;2.70;;;;;;;31.08;15.10;100619.60;144783;1256;97973;-78
2023/03/16 10:44:24;;;;;;;6.00;2.80;;;;;;;31.20;15.46;100619.59;144973;1272;99168;-79
2023/03/16 10:47:46;;;;;;;8.70;4.30;;;;;;;31.46;15.92;100613.41;144895;1277;98398;-78
2023/03/16 10:51:13;;;;;;;4.70;3.50;;;;;;;31.82;15.85;100613.43;145009;1261;97921;-79
2023/03/16 10:54:39;;;;;;;12.50;4.30;;;;;;;32.12;15.98;100613.39;144914;1260;97931;-80
2023/03/16 10:58:02;;;;;;;4.90;3.60;;;;;;;32.33;15.69;100611.52;145056;1260;98396;-77
2023/03/16 11:01:25;;;;;;;12.10;4.60;;;;;;;32.37;15.39;100607.08;144770;1260;98920;-78
2023/03/16 11:04:56;;;;;;;11.00;4.10;;;;;;;32.20;15.13;100613.43;145027;1256;98810;-78
2023/03/16 11:08:24;;;;;;;5.70;3.20;;;;;;;31.97;15.30;100609.27;144802;1273;98613;-78
2023/03/16 11:11:48;;;;;;;;;;;;;;;32.12;15.40;100605.66;144825;1257;98019;-77
2023/03/16 11:15:12;;;;;;;4.80;3.20;;;;;;;31.60;15.19;100609.16;145115;1257;99103;-79
2023/03/16 11:18:53;;;;;;;6.00;3.10;;;;;;;30.85;15.32;100604.23;144957;1256;98497;-79
2023/03/16 11:22:16;;;;;;;12.00;4.40;;;;;;;30.12;15.79;100598.88;144929;1272;98115;-77
2023/03/16 11:25:50;;;;;;;8.30;3.40;;;;;;;29.56;15.97;100595.08;144983;1266;98325;-78
2023/03/16 11:29:20;;;;;;;6.20;2.90;;;;;;;28.47;17.03;100594.35;145058;1260;98334;-78
2023/03/16 11:32:47;;;;;;;7.30;3.90;;;;;;;27.88;17.99;100598.98;145277;1260;98439;-79
2023/03/16 11:36:17;;;;;;;7.10;3.20;;;;;;;26.84;18.02;100597.23;145150;1257;99102;-79
2023/03/16 11:40:09;;;;;;;10.30;3.10;;;;;;;25.55;18.85;100593.88;144861;1261;97988;-79
2023/03/16 11:43:30;;;;;;;11.50;4.00;;;;;;;24.62;19.60;100591.05;145265;1259;98182;-80
2023/03/16 11:47:00;;;;;;;8.40;2.60;;;;;;;23.70;20.47;100596.90;145362;1260;103148;-80
2023/03/16 11:50:29;;;;;;;11.00;4.10;;;;;;;22.76;20.50;100593.01;144971;1257;102166;-80
2023/03/16 11:53:56;;;;;;;;;;;;;;;21.69;21.58;100591.52;144849;1260;102163;-78
2023/03/16 11:57:40;;;;;;;7.00;3.50;;;;;;;21.16;22.89;100589.57;144813;1260;100851;-78
2023/03/16 12:01:25;;;;;;;10.30;4.10;;;;;;;20.79;23.14;100587.86;144764;1260;101489;-79
2023/03/16 12:05:25;;;;;;;10.10;4.00;;;;;;;20.03;23.32;100587.08;144722;1259;102058;-78
2023/03/16 12:09:03;;;;;;;9.00;4.00;;;;;;;19.19;24.16;100591.77;144721;1257;102265;-79
2023/03/16 12:12:46;;;;;;;7.00;3.10;;;;;;;18.94;24.77;100590.40;144792;1257;102302;-80
2023/03/16 12:16:18;;;;;;;13.00;3.70;;;;;;;18.95;24.98;100585.45;145102;1257;101980;-78
2023/03/16 12:19:45;;;;;;;5.20;2.90;;;;;;;18.97;25.19;100591.80;144895;1260;103058;-80
2023/03/16 12:23:31;;;;;;;14.20;3.40;;;;;;;19.02;26.51;100596.33;145125;1260;100363;-80
2023/03/16 12:26:53;;;;;;;6.40;3.10;;;;;;;19.22;26.34;100598.28;144506;1262;102260;-78
2023/03/16 12:30:43;;;;;;;11.40;3.60;;;;;;;18.86;26.22;100595.75;144666;1257;97922;-78
2023/03/16 12:34:42;;;;;;;6.40;3.30;;;;;;;18.76;26.93;100597.58;144690;1262;101920;-79
2023/03/16 12:38:36;;;;;;;6.40;2.70;;;;;;;18.67;27.18;100597.77;145061;1256;102212;-79
2023/03/16 12:42:23;;;;;;;11.10;4.00;;;;;;;18.69;27.71;100597.60;145055;1257;102328;-79
2023/03/16 12:45:56;;;;;;;12.80;3.30;;;;;;;18.44;26.97;100594.38;144710;1262;102244;-79
2023/03/16 12:49:19;;;;;;;10.80;2.60;;;;;;;18.26;27.34;100597.11;144969;1262;101262;-85
2023/03/16 12:52:50;;;;;;;9.00;2.50;;;;;;;17.81;26.76;100599.70;144915;1259;97924;-81
2023/03/16 12:56:16;;;;;;;8.10;4.10;;;;;;;17.40;27.63;100600.12;144790;1262;102853;-80
2023/03/16 12:59:41;;;;;;;11.30;2.60;;;;;;;17.34;27.91;100602.77;145114;1256;102377;-78
2023/03/16 13:03:06;;;;;;;13.60;3.80;;;;;;;17.16;28.39;100603.63;145154;1257;102197;-78
2023/03/16 13:06:32;;;;;;;15.90;3.30;;;;;;;17.13;28.85;100604.52;144953;1257;101119;-78
2023/03/16 13:10:13;;;;;;;13.40;4.00;;;;;;;17.08;29.17;100604.86;145106;1262;101629;-78
2023/03/16 13:13:49;;;;;;;10.40;3.10;;;;;;;17.32;30.89;100605.05;145302;1262;102297;-78
2023/03/16 13:17:17;;;;;;;12.80;3.50;;;;;;;17.47;29.63;100602.05;144812;1259;102075;-78
2023/03/16 13:20:57;;;;;;;11.10;3.80;;;;;;;17.47;30.85;100597.83;145229;1260;101860;-80
2023/03/16 13:24:18;;;;;;;7.30;2.90;;;;;;;17.70;29.48;100599.73;145230;1259;101300;-79
2023/03/16 13:27:44;;;;;;;7.60;2.50;;;;;;;17.30;28.02;100602.58;145086;1260;99212;-81
2023/03/16 13:31:20;;;;;;;7.00;2.60;;;;;;;16.88;27.31;100598.88;145212;1262;103154;-81
2023/03/16 13:34:48;;;;;;;10.00;2.80;;;;;;;16.92;27.23;100598.17;145169;1257;101069;-79
2023/03/16 13:38:15;;;;;;;10.30;3.60;;;;;;;16.75;26.77;100602.17;145167;1260;102161;-79
2023/03/16 13:41:37;;;;;;;6.10;2.90;;;;;;;16.37;26.68;100599.60;145117;1260;101052;-78
2023/03/16 13:45:10;;;;;;;6.10;2.80;;;;;;;16.00;26.82;100606.10;144785;1256;97965;-79
2023/03/16 13:48:36;;;;;;;10.30;2.90;;;;;;;15.81;27.57;100610.21;145030;1261;102186;-78
2023/03/16 13:51:57;;;;;;;9.10;3.20;;;;;;;15.87;28.04;100607.61;145406;1257;102104;-78
2023/03/16 13:55:29;;;;;;;6.80;3.20;;;;;;;15.79;27.92;100609.68;145204;1260;99271;-82
2023/03/16 13:58:55;;;;;;;6.80;3.20;;;;;;;15.54;28.02;100611.58;145544;1255;102162;-84
2023/03/16 14:02:40;;;;;;;13.30;3.00;;;;;;;15.22;28.30;100611.16;145544;1259;102172;-79
2023/03/16 14:06:04;;;;;;;6.70;3.00;;;;;;;14.91;29.13;100611.77;145572;1262;102230;-78
2023/03/16 14:09:29;;;;;;;10.40;3.20;;;;;;;14.99;29.26;100611.13;145531;1257;102152;-76
2023/03/16 14:12:56;;;;;;;6.20;3.10;;;;;;;15.03;29.31;100612.55;145055;1261;102409;-79
2023/03/16 14:16:19;;;;;;;5.60;3.00;;;;;;;14.98;29.31;100613.92;144902;1270;101463;-80
2023/03/16 14:19:45;;;;;;;8.50;4.00;;;;;;;14.75;29.02;100611.59;145138;1257;97919;-84
2023/03/16 14:23:18;;;;;;;7.70;3.80;;;;;;;14.39;29.29;100610.11;145129;1260;101929;-80
2023/03/16 14:26:41;;;;;;;11.70;3.20;;;;;;;14.09;29.53;100614.64;144876;1256;102078;-84
2023/03/16 14:30:22;;;;;;;7.70;2.80;;;;;;;13.82;29.72;100617.42;145127;1257;102128;-82
2023/03/16 14:33:44;;;;;;;7.20;2.60;;;;;;;13.79;30.30;100615.64;145033;1257;103006;-78
2023/03/16 14:37:18;;;;;;;6.10;3.10;;;;;;;14.03;30.67;100612.98;145184;1260;98035;-80
2023/03/16 14:40:51;;;;;;;7.00;3.30;;;;;;;14.31;31.32;100615.27;144954;1260;101986;-81
2023/03/16 14:44:22;;;;;;;4.50;2.30;;;;;;;14.54;31.62;100612.76;144930;1260;101139;-79
2023/03/16 14:47:46;;;;;;;9.30;2.30;;;;;;;14.72;32.09;100615.78;144887;1262;102239;-80
2023/03/16 14:51:12;;;;;;;6.60;2.50;;;;;;;14.87;32.52;100613.99;144899;1261;100981;-80
2023/03/16 14:54:34;;;;;;;6.10;2.60;;;;;;;14.98;32.59;100617.07;145239;1260;102243;-81
2023/03/16 14:57:56;;;;;;;5.40;2.40;;;;;;;15.11;32.86;100618.93;144792;1262;98409;-83
2023/03/16 15:01:19;;;;;;;4.70;2.40;;;;;;;15.28;32.93;100625.39;145075;1262;97977;-81
2023/03/16 15:04:41;;;;;;;7.00;2.20;;;;;;;15.42;33.26;100628.83;144921;1260;107038;-79
2023/03/16 15:08:06;;;;;;;5.00;2.20;;;;;;;15.51;33.35;100632.95;144965;1263;97928;-80
2023/03/16 15:11:30;;;;;;;5.00;1.90;;;;;;;15.65;33.71;100638.48;145309;1257;107612;-80
2023/03/16 15:15:14;;;;;;;3.70;2.30;;;;;;;15.81;33.83;100633.52;145486;1260;108136;-81
2023/03/16 15:18:40;;;;;;;9.00;2.60;;;;;;;15.94;33.92;100636.05;144885;1257;107577;-83
2023/03/16 15:22:03;;;;;;;3.30;1.90;;;;;;;16.00;33.99;100641.17;144949;1257;107668;-83
2023/03/16 15:25:35;;;;;;;3.30;1.80;;;;;;;16.03;34.11;100641.02;144752;1260;97950;-82
2023/03/16 15:28:57;;;;;;;6.50;1.80;;;;;;;16.04;34.44;100643.30;144926;1256;107595;-81
2023/03/16 15:32:19;;;;;;;5.50;1.90;;;;;;;16.02;34.85;100640.65;144838;1262;97977;-82
2023/03/16 15:35:42;;;;;;;6.20;2.30;;;;;;;16.00;35.30;100638.02;145085;1257;99192;-83
2023/03/16 15:39:04;;;;;;;4.30;2.10;;;;;;;15.95;35.46;100641.84;145100;1262;98731;-81
2023/03/16 15:42:26;;;;;;;4.90;1.90;;;;;;;15.89;35.83;100642.86;144941;1262;99207;-80
2023/03/16 15:45:50;;;;;;;5.10;2.00;;;;;;;15.81;35.98;100643.86;145395;1260;98135;-80
2023/03/16 15:49:14;;;;;;;13.00;4.00;;;;;;;15.76;36.71;100645.76;144994;1259;97922;-77
2023/03/16 15:52:37;;;;;;;11.90;3.80;;;;;;;15.70;36.88;100654.65;144864;1257;99199;-78
2023/03/16 15:56:02;;;;;;;11.90;3.20;;;;;;;15.64;37.05;100655.12;144961;1262;97924;-77
2023/03/16 15:59:25;;;;;;;13.10;3.50;;;;;;;15.59;36.98;100654.71;145186;1260;97940;-77
2023/03/16 16:02:48;;;;;;;8.90;3.40;;;;;;;15.52;36.95;100657.99;144645;1262;97932;-79